sensor_id;sensor_type;location;lat;lon;timestamp;pressure;altitude;pressure_sealevel;temperature;humidity
33189;BME280;52601;53.070;10.600;2023-02-03T00:00:36;101522.25;;;4.89;100.00
33189;BME280;52601;53.070;10.600;2023-02-03T00:03:22;101514.44;;;4.87;100.00
33189;BME280;52601;53.070;10.600;2023-02-03T00:06:08;101509.28;;;4.86;100.00
33189;BME280;52601;53.070;10.600;2023-02-03T00:08:57;101509.22;;;4.90;100.00
33189;BME280;52601;53.070;10.600;2023-02-03T00:11:43;101498.75;;;4.96;100.00
33189;BME280;52601;53.070;10.600;2023-02-03T00:14:29;101492.72;;;4.94;100.00
33189;BME280;52601;53.070;10.600;2023-02-03T00:17:14;101487.56;;;4.93;100.00
33189;BME280;52601;53.070;10.600;2023-02-03T00:20:00;101481.44;;;4.95;100.00
33189;BME280;52601;53.070;10.600;2023-02-03T00:22:45;101481.44;;;4.95;100.00
33189;BME280;52601;53.070;10.600;2023-02-03T00:25:31;101470.19;;;4.93;100.00
33189;BME280;52601;53.070;10.600;2023-02-03T00:28:17;101473.44;;;5.12;100.00
33189;BME280;52601;53.070;10.600;2023-02-03T00:31:03;101465.69;;;5.07;100.00
33189;BME280;52601;53.070;10.600;2023-02-03T00:33:53;101466.53;;;5.09;100.00
33189;BME280;52601;53.070;10.600;2023-02-03T00:36:39;101466.63;;;5.02;100.00
33189;BME280;52601;53.070;10.600;2023-02-03T00:39:27;101462.16;;;5.11;100.00
33189;BME280;52601;53.070;10.600;2023-02-03T00:42:13;101452.53;;;5.18;100.00
33189;BME280;52601;53.070;10.600;2023-02-03T00:44:58;101436.09;;;5.17;100.00
33189;BME280;52601;53.070;10.600;2023-02-03T00:47:44;101438.75;;;5.14;100.00
33189;BME280;52601;53.070;10.600;2023-02-03T00:50:29;101435.97;;;5.27;100.00
33189;BME280;52601;53.070;10.600;2023-02-03T00:53:15;101421.94;;;5.35;100.00
33189;BME280;52601;53.070;10.600;2023-02-03T00:56:00;101424.53;;;5.37;100.00
33189;BME280;52601;53.070;10.600;2023-02-03T00:58:46;101423.50;;;5.48;100.00
33189;BME280;52601;53.070;10.600;2023-02-03T01:01:32;101413.13;;;5.47;100.00
33189;BME280;52601;53.070;10.600;2023-02-03T01:04:18;101406.97;;;5.52;100.00
33189;BME280;52601;53.070;10.600;2023-02-03T01:07:04;101407.47;;;5.71;100.00
33189;BME280;52601;53.070;10.600;2023-02-03T01:09:49;101402.97;;;5.82;100.00
33189;BME280;52601;53.070;10.600;2023-02-03T01:12:35;101409.03;;;5.84;100.00
33189;BME280;52601;53.070;10.600;2023-02-03T01:15:21;101415.63;;;6.03;100.00
33189;BME280;52601;53.070;10.600;2023-02-03T01:18:07;101405.22;;;6.03;100.00
33189;BME280;52601;53.070;10.600;2023-02-03T01:20:52;101401.50;;;6.16;100.00
33189;BME280;52601;53.070;10.600;2023-02-03T01:23:38;101402.94;;;6.31;100.00
33189;BME280;52601;53.070;10.600;2023-02-03T01:26:24;101379.28;;;6.41;100.00
33189;BME280;52601;53.070;10.600;2023-02-03T01:29:09;101386.06;;;6.50;100.00
33189;BME280;52601;53.070;10.600;2023-02-03T01:31:55;101377.22;;;6.57;100.00
33189;BME280;52601;53.070;10.600;2023-02-03T01:34:41;101367.53;;;6.63;100.00
33189;BME280;52601;53.070;10.600;2023-02-03T01:37:27;101348.41;;;6.64;100.00
33189;BME280;52601;53.070;10.600;2023-02-03T01:40:12;101346.47;;;6.72;100.00
33189;BME280;52601;53.070;10.600;2023-02-03T01:42:58;101342.69;;;6.87;100.00
33189;BME280;52601;53.070;10.600;2023-02-03T01:45:44;101342.50;;;6.94;100.00
33189;BME280;52601;53.070;10.600;2023-02-03T01:48:31;101334.63;;;6.97;100.00
33189;BME280;52601;53.070;10.600;2023-02-03T01:51:18;101325.94;;;6.97;100.00
33189;BME280;52601;53.070;10.600;2023-02-03T01:54:06;101320.47;;;7.08;100.00
33189;BME280;52601;53.070;10.600;2023-02-03T01:56:55;101314.00;;;7.24;100.00
33189;BME280;52601;53.070;10.600;2023-02-03T01:59:43;101308.69;;;7.27;100.00
33189;BME280;52601;53.070;10.600;2023-02-03T02:02:31;101309.16;;;7.42;100.00
33189;BME280;52601;53.070;10.600;2023-02-03T02:05:33;101299.63;;;7.41;100.00
33189;BME280;52601;53.070;10.600;2023-02-03T02:08:21;101291.47;;;7.53;100.00
33189;BME280;52601;53.070;10.600;2023-02-03T02:11:08;101273.22;;;7.53;100.00
33189;BME280;52601;53.070;10.600;2023-02-03T02:13:57;101259.25;;;7.54;100.00
33189;BME280;52601;53.070;10.600;2023-02-03T02:16:54;101262.47;;;7.64;100.00
33189;BME280;52601;53.070;10.600;2023-02-03T02:20:12;101263.38;;;7.63;100.00
33189;BME280;52601;53.070;10.600;2023-02-03T02:23:35;101267.63;;;7.67;100.00
33189;BME280;52601;53.070;10.600;2023-02-03T02:26:41;101283.28;;;7.67;100.00
33189;BME280;52601;53.070;10.600;2023-02-03T02:29:57;101302.19;;;7.75;100.00
33189;BME280;52601;53.070;10.600;2023-02-03T02:33:23;101275.34;;;7.71;100.00
33189;BME280;52601;53.070;10.600;2023-02-03T02:39:19;101267.13;;;7.83;100.00
33189;BME280;52601;53.070;10.600;2023-02-03T02:42:35;101272.34;;;7.83;100.00
33189;BME280;52601;53.070;10.600;2023-02-03T02:45:28;101255.72;;;7.88;100.00
33189;BME280;52601;53.070;10.600;2023-02-03T02:48:26;101253.53;;;7.72;100.00
33189;BME280;52601;53.070;10.600;2023-02-03T02:51:14;101261.97;;;7.82;100.00
33189;BME280;52601;53.070;10.600;2023-02-03T02:54:04;101265.22;;;7.90;100.00
33189;BME280;52601;53.070;10.600;2023-02-03T02:56:55;101273.22;;;7.84;100.00
33189;BME280;52601;53.070;10.600;2023-02-03T02:59:44;101263.53;;;7.89;100.00
33189;BME280;52601;53.070;10.600;2023-02-03T03:02:34;101251.28;;;7.91;100.00
33189;BME280;52601;53.070;10.600;2023-02-03T03:05:20;101231.03;;;7.98;100.00
33189;BME280;52601;53.070;10.600;2023-02-03T03:08:06;101241.66;;;7.93;100.00
33189;BME280;52601;53.070;10.600;2023-02-03T03:10:55;101246.59;;;8.02;100.00
33189;BME280;52601;53.070;10.600;2023-02-03T03:13:49;101244.84;;;8.03;100.00
33189;BME280;52601;53.070;10.600;2023-02-03T03:16:38;101230.97;;;8.01;100.00
33189;BME280;52601;53.070;10.600;2023-02-03T03:19:31;101228.72;;;7.89;100.00
33189;BME280;52601;53.070;10.600;2023-02-03T03:22:21;101225.00;;;7.97;100.00
33189;BME280;52601;53.070;10.600;2023-02-03T03:25:13;101219.59;;;8.03;100.00
33189;BME280;52601;53.070;10.600;2023-02-03T03:28:05;101222.22;;;8.02;100.00
33189;BME280;52601;53.070;10.600;2023-02-03T03:30:53;101210.13;;;7.99;100.00
33189;BME280;52601;53.070;10.600;2023-02-03T03:33:39;101213.63;;;7.98;100.00
33189;BME280;52601;53.070;10.600;2023-02-03T03:36:43;101209.97;;;8.04;100.00
33189;BME280;52601;53.070;10.600;2023-02-03T03:39:53;101198.06;;;7.95;100.00
33189;BME280;52601;53.070;10.600;2023-02-03T03:42:56;101184.84;;;8.00;100.00
33189;BME280;52601;53.070;10.600;2023-02-03T03:45:47;101185.28;;;7.86;100.00
33189;BME280;52601;53.070;10.600;2023-02-03T03:48:40;101182.78;;;7.81;100.00
33189;BME280;52601;53.070;10.600;2023-02-03T03:51:50;101171.34;;;7.85;100.00
33189;BME280;52601;53.070;10.600;2023-02-03T03:54:39;101177.50;;;7.84;100.00
33189;BME280;52601;53.070;10.600;2023-02-03T03:58:02;101189.59;;;7.87;100.00
33189;BME280;52601;53.070;10.600;2023-02-03T04:00:49;101177.13;;;7.97;100.00
33189;BME280;52601;53.070;10.600;2023-02-03T04:03:43;101164.31;;;7.89;100.00
33189;BME280;52601;53.070;10.600;2023-02-03T04:06:29;101158.97;;;7.92;100.00
33189;BME280;52601;53.070;10.600;2023-02-03T04:09:15;101150.34;;;7.90;100.00
33189;BME280;52601;53.070;10.600;2023-02-03T04:12:03;101150.09;;;7.99;100.00
33189;BME280;52601;53.070;10.600;2023-02-03T04:14:50;101144.81;;;8.01;100.00
33189;BME280;52601;53.070;10.600;2023-02-03T04:17:35;101152.53;;;8.04;100.00
33189;BME280;52601;53.070;10.600;2023-02-03T04:20:21;101164.97;;;7.96;100.00
33189;BME280;52601;53.070;10.600;2023-02-03T04:23:07;101165.78;;;7.98;100.00
33189;BME280;52601;53.070;10.600;2023-02-03T04:25:52;101154.44;;;7.99;100.00
33189;BME280;52601;53.070;10.600;2023-02-03T04:28:38;101149.91;;;8.04;100.00
33189;BME280;52601;53.070;10.600;2023-02-03T04:31:23;101141.34;;;8.00;100.00
33189;BME280;52601;53.070;10.600;2023-02-03T04:34:09;101136.16;;;7.99;100.00
33189;BME280;52601;53.070;10.600;2023-02-03T04:36:54;101125.03;;;7.92;100.00
33189;BME280;52601;53.070;10.600;2023-02-03T04:39:40;101108.25;;;8.01;100.00
33189;BME280;52601;53.070;10.600;2023-02-03T04:42:25;101108.19;;;8.02;100.00
33189;BME280;52601;53.070;10.600;2023-02-03T04:45:11;101101.03;;;8.09;100.00
33189;BME280;52601;53.070;10.600;2023-02-03T04:47:57;101102.69;;;8.11;100.00
33189;BME280;52601;53.070;10.600;2023-02-03T04:50:42;101102.78;;;8.08;100.00
33189;BME280;52601;53.070;10.600;2023-02-03T04:53:28;101098.28;;;8.13;100.00
33189;BME280;52601;53.070;10.600;2023-02-03T04:56:13;101104.31;;;8.15;100.00
33189;BME280;52601;53.070;10.600;2023-02-03T04:59:00;101099.22;;;8.11;100.00
33189;BME280;52601;53.070;10.600;2023-02-03T05:01:46;101083.63;;;8.09;100.00
33189;BME280;52601;53.070;10.600;2023-02-03T05:04:31;101101.72;;;8.14;100.00
33189;BME280;52601;53.070;10.600;2023-02-03T05:07:17;101101.72;;;8.14;100.00
33189;BME280;52601;53.070;10.600;2023-02-03T05:10:03;101099.28;;;8.09;100.00
33189;BME280;52601;53.070;10.600;2023-02-03T05:12:48;101099.84;;;8.17;100.00
33189;BME280;52601;53.070;10.600;2023-02-03T05:15:34;101084.25;;;8.16;100.00
33189;BME280;52601;53.070;10.600;2023-02-03T05:18:19;101081.81;;;8.11;100.00
33189;BME280;52601;53.070;10.600;2023-02-03T05:21:05;101090.44;;;8.13;100.00
33189;BME280;52601;53.070;10.600;2023-02-03T05:23:50;101078.19;;;8.15;100.00
33189;BME280;52601;53.070;10.600;2023-02-03T05:26:36;101074.84;;;8.10;100.00
33189;BME280;52601;53.070;10.600;2023-02-03T05:29:21;101075.72;;;8.11;100.00
33189;BME280;52601;53.070;10.600;2023-02-03T05:32:07;101078.38;;;8.09;100.00
33189;BME280;52601;53.070;10.600;2023-02-03T05:34:52;101057.59;;;8.06;100.00
33189;BME280;52601;53.070;10.600;2023-02-03T05:37:38;101048.81;;;8.09;100.00
33189;BME280;52601;53.070;10.600;2023-02-03T05:40:24;101030.56;;;8.07;100.00
33189;BME280;52601;53.070;10.600;2023-02-03T05:43:28;101020.34;;;8.01;100.00
33189;BME280;52601;53.070;10.600;2023-02-03T05:46:13;101018.66;;;7.99;100.00
33189;BME280;52601;53.070;10.600;2023-02-03T05:48:59;101016.19;;;7.94;100.00
33189;BME280;52601;53.070;10.600;2023-02-03T05:51:45;101010.88;;;7.97;100.00
33189;BME280;52601;53.070;10.600;2023-02-03T05:54:31;100998.03;;;7.91;100.00
33189;BME280;52601;53.070;10.600;2023-02-03T05:57:16;101009.09;;;7.98;100.00
33189;BME280;52601;53.070;10.600;2023-02-03T06:00:03;101018.75;;;7.96;100.00
33189;BME280;52601;53.070;10.600;2023-02-03T06:02:51;101017.91;;;7.95;100.00
33189;BME280;52601;53.070;10.600;2023-02-03T06:05:36;101014.19;;;8.02;100.00
33189;BME280;52601;53.070;10.600;2023-02-03T06:08:25;100996.78;;;8.03;100.00
33189;BME280;52601;53.070;10.600;2023-02-03T06:11:13;100997.38;;;8.11;100.00
33189;BME280;52601;53.070;10.600;2023-02-03T06:13:59;100984.38;;;8.09;100.00
33189;BME280;52601;53.070;10.600;2023-02-03T06:16:45;100971.31;;;8.09;100.00
33189;BME280;52601;53.070;10.600;2023-02-03T06:19:31;100979.09;;;8.11;100.00
33189;BME280;52601;53.070;10.600;2023-02-03T06:22:16;100980.56;;;8.18;100.00
33189;BME280;52601;53.070;10.600;2023-02-03T06:25:02;100975.53;;;8.13;100.00
33189;BME280;52601;53.070;10.600;2023-02-03T06:27:47;100984.00;;;8.20;100.00
33189;BME280;52601;53.070;10.600;2023-02-03T06:30:32;100993.53;;;8.21;100.00
33189;BME280;52601;53.070;10.600;2023-02-03T06:33:19;100969.31;;;8.16;100.00
33189;BME280;52601;53.070;10.600;2023-02-03T06:36:04;100966.72;;;8.16;100.00
33189;BME280;52601;53.070;10.600;2023-02-03T06:38:50;100970.31;;;8.13;100.00
33189;BME280;52601;53.070;10.600;2023-02-03T06:41:35;100976.84;;;8.26;100.00
33189;BME280;52601;53.070;10.600;2023-02-03T06:44:23;100972.50;;;8.25;100.00
33189;BME280;52601;53.070;10.600;2023-02-03T06:47:08;100977.75;;;8.24;100.00
33189;BME280;52601;53.070;10.600;2023-02-03T06:49:54;100978.38;;;8.32;100.00
33189;BME280;52601;53.070;10.600;2023-02-03T06:52:39;100973.41;;;8.24;100.00
33189;BME280;52601;53.070;10.600;2023-02-03T06:55:25;100971.88;;;8.17;100.00
33189;BME280;52601;53.070;10.600;2023-02-03T06:58:11;100957.13;;;8.16;100.00
33189;BME280;52601;53.070;10.600;2023-02-03T07:00:56;100951.97;;;8.15;100.00
33189;BME280;52601;53.070;10.600;2023-02-03T07:03:42;100967.44;;;8.21;100.00
33189;BME280;52601;53.070;10.600;2023-02-03T07:06:28;100956.19;;;8.19;100.00
33189;BME280;52601;53.070;10.600;2023-02-03T07:09:16;100958.72;;;8.20;100.00
33189;BME280;52601;53.070;10.600;2023-02-03T07:12:01;100939.81;;;8.14;100.00
33189;BME280;52601;53.070;10.600;2023-02-03T07:14:47;100936.31;;;8.15;100.00
33189;BME280;52601;53.070;10.600;2023-02-03T07:17:32;100951.31;;;8.08;100.00
33189;BME280;52601;53.070;10.600;2023-02-03T07:20:18;100939.00;;;8.12;100.00
33189;BME280;52601;53.070;10.600;2023-02-03T07:23:03;100941.59;;;8.12;100.00
33189;BME280;52601;53.070;10.600;2023-02-03T07:25:49;100933.97;;;8.07;100.00
33189;BME280;52601;53.070;10.600;2023-02-03T07:28:35;100944.19;;;8.13;100.00
33189;BME280;52601;53.070;10.600;2023-02-03T07:31:21;100939.81;;;8.14;100.00
33189;BME280;52601;53.070;10.600;2023-02-03T07:34:06;100938.84;;;8.16;100.00
33189;BME280;52601;53.070;10.600;2023-02-03T07:36:52;100943.16;;;8.17;100.00
33189;BME280;52601;53.070;10.600;2023-02-03T07:39:37;100931.22;;;8.10;100.00
33189;BME280;52601;53.070;10.600;2023-02-03T07:42:23;100923.06;;;8.19;100.00
33189;BME280;52601;53.070;10.600;2023-02-03T07:45:09;100915.19;;;8.21;100.00
33189;BME280;52601;53.070;10.600;2023-02-03T07:47:55;100932.56;;;8.22;100.00
33189;BME280;52601;53.070;10.600;2023-02-03T07:50:41;100928.97;;;8.26;100.00
33189;BME280;52601;53.070;10.600;2023-02-03T07:53:26;100937.72;;;8.25;100.00
33189;BME280;52601;53.070;10.600;2023-02-03T07:56:12;100910.69;;;8.24;100.00
33189;BME280;52601;53.070;10.600;2023-02-03T07:58:58;100911.59;;;8.25;100.00
33189;BME280;52601;53.070;10.600;2023-02-03T08:01:44;100911.38;;;8.31;100.00
33189;BME280;52601;53.070;10.600;2023-02-03T08:04:29;100927.63;;;8.39;100.00
33189;BME280;52601;53.070;10.600;2023-02-03T08:07:15;100919.81;;;8.39;100.00
33189;BME280;52601;53.070;10.600;2023-02-03T08:10:00;100907.69;;;8.36;100.00
33189;BME280;52601;53.070;10.600;2023-02-03T08:12:46;100887.47;;;8.41;100.00
33189;BME280;52601;53.070;10.600;2023-02-03T08:15:32;100914.44;;;8.42;100.00
33189;BME280;52601;53.070;10.600;2023-02-03T08:18:18;100902.88;;;8.49;100.00
33189;BME280;52601;53.070;10.600;2023-02-03T08:21:04;100889.41;;;8.36;100.00
33189;BME280;52601;53.070;10.600;2023-02-03T08:23:49;100903.25;;;8.38;100.00
33189;BME280;52601;53.070;10.600;2023-02-03T08:26:36;100918.59;;;8.47;100.00
33189;BME280;52601;53.070;10.600;2023-02-03T08:29:21;100904.56;;;8.50;100.00
33189;BME280;52601;53.070;10.600;2023-02-03T08:32:11;100890.94;;;8.42;100.00
33189;BME280;52601;53.070;10.600;2023-02-03T08:34:56;100916.84;;;8.48;100.00
33189;BME280;52601;53.070;10.600;2023-02-03T08:37:42;100927.13;;;8.52;100.00
33189;BME280;52601;53.070;10.600;2023-02-03T08:40:27;100894.56;;;8.61;100.00
33189;BME280;52601;53.070;10.600;2023-02-03T08:43:13;100895.56;;;8.58;100.00
33189;BME280;52601;53.070;10.600;2023-02-03T08:46:08;100908.56;;;8.60;100.00
33189;BME280;52601;53.070;10.600;2023-02-03T08:48:54;100908.69;;;8.57;100.00
33189;BME280;52601;53.070;10.600;2023-02-03T08:51:43;100900.41;;;8.67;100.00
33189;BME280;52601;53.070;10.600;2023-02-03T08:54:31;100902.16;;;8.68;100.00
33189;BME280;52601;53.070;10.600;2023-02-03T08:57:17;100904.69;;;8.70;100.00
33189;BME280;52601;53.070;10.600;2023-02-03T09:00:04;100910.56;;;8.77;100.00
33189;BME280;52601;53.070;10.600;2023-02-03T09:02:50;100910.56;;;8.77;100.00
33189;BME280;52601;53.070;10.600;2023-02-03T09:05:36;100924.59;;;8.74;100.00
33189;BME280;52601;53.070;10.600;2023-02-03T09:08:22;100914.13;;;8.74;100.00
33189;BME280;52601;53.070;10.600;2023-02-03T09:11:12;100935.66;;;8.81;100.00
33189;BME280;52601;53.070;10.600;2023-02-03T09:13:57;101000.59;;;8.68;100.00
33189;BME280;52601;53.070;10.600;2023-02-03T09:16:43;101000.59;;;8.43;100.00
33189;BME280;52601;53.070;10.600;2023-02-03T09:19:29;101027.78;;;8.12;100.00
33189;BME280;52601;53.070;10.600;2023-02-03T09:22:15;101000.84;;;7.85;100.00
33189;BME280;52601;53.070;10.600;2023-02-03T09:25:00;101001.94;;;7.50;100.00
33189;BME280;52601;53.070;10.600;2023-02-03T09:27:45;100978.16;;;7.32;100.00
33189;BME280;52601;53.070;10.600;2023-02-03T09:30:31;100977.16;;;7.37;100.00
33189;BME280;52601;53.070;10.600;2023-02-03T09:33:17;100986.03;;;7.30;100.00
33189;BME280;52601;53.070;10.600;2023-02-03T09:36:03;100985.44;;;7.22;100.00
33189;BME280;52601;53.070;10.600;2023-02-03T09:38:50;100977.97;;;7.38;100.00
33189;BME280;52601;53.070;10.600;2023-02-03T09:47:47;100967.38;;;7.71;100.00
33189;BME280;52601;53.070;10.600;2023-02-03T09:50:40;100960.16;;;7.78;100.00
33189;BME280;52601;53.070;10.600;2023-02-03T09:53:32;100965.03;;;7.89;100.00
33189;BME280;52601;53.070;10.600;2023-02-03T09:56:29;100957.28;;;7.87;100.00
33189;BME280;52601;53.070;10.600;2023-02-03T09:59:16;100966.59;;;7.94;100.00
33189;BME280;52601;53.070;10.600;2023-02-03T10:02:25;100980.31;;;8.01;100.00
33189;BME280;52601;53.070;10.600;2023-02-03T10:11:59;101022.09;;;8.27;100.00
33189;BME280;52601;53.070;10.600;2023-02-03T10:15:14;101009.22;;;8.47;100.00
33189;BME280;52601;53.070;10.600;2023-02-03T10:18:00;101024.72;;;8.51;100.00
33189;BME280;52601;53.070;10.600;2023-02-03T10:20:52;101021.00;;;8.58;100.00
33189;BME280;52601;53.070;10.600;2023-02-03T10:23:40;101036.88;;;8.77;100.00
33189;BME280;52601;53.070;10.600;2023-02-03T10:26:28;101027.97;;;8.83;100.00
33189;BME280;52601;53.070;10.600;2023-02-03T10:29:31;101038.47;;;8.81;100.00
33189;BME280;52601;53.070;10.600;2023-02-03T10:32:19;101028.81;;;8.83;100.00
33189;BME280;52601;53.070;10.600;2023-02-03T10:35:10;101032.41;;;8.81;100.00
33189;BME280;52601;53.070;10.600;2023-02-03T10:37:57;101050.66;;;8.82;100.00
33189;BME280;52601;53.070;10.600;2023-02-03T10:40:43;101050.31;;;8.91;100.00
33189;BME280;52601;53.070;10.600;2023-02-03T10:43:30;101055.22;;;9.00;100.00
33189;BME280;52601;53.070;10.600;2023-02-03T10:46:37;101070.97;;;9.22;100.00
33189;BME280;52601;53.070;10.600;2023-02-03T10:49:25;101069.25;;;9.21;100.00
33189;BME280;52601;53.070;10.600;2023-02-03T10:52:24;101076.44;;;9.39;100.00
33189;BME280;52601;53.070;10.600;2023-02-03T10:58:12;101100.13;;;9.36;100.00
33189;BME280;52601;53.070;10.600;2023-02-03T11:01:06;101115.56;;;9.19;100.00
33189;BME280;52601;53.070;10.600;2023-02-03T11:04:01;101074.84;;;9.12;100.00
33189;BME280;52601;53.070;10.600;2023-02-03T11:06:58;101094.63;;;9.19;100.00
33189;BME280;52601;53.070;10.600;2023-02-03T11:09:46;101095.44;;;9.21;96.68
33189;BME280;52601;53.070;10.600;2023-02-03T11:12:31;101101.41;;;9.47;96.97
33189;BME280;52601;53.070;10.600;2023-02-03T11:15:17;101087.59;;;9.44;95.53
33189;BME280;52601;53.070;10.600;2023-02-03T11:18:02;101092.38;;;9.56;95.74
33189;BME280;52601;53.070;10.600;2023-02-03T11:20:48;101113.47;;;9.51;96.64
33189;BME280;52601;53.070;10.600;2023-02-03T11:23:33;101055.03;;;9.51;93.33
33189;BME280;52601;53.070;10.600;2023-02-03T11:26:26;101096.06;;;9.74;91.38
33189;BME280;52601;53.070;10.600;2023-02-03T11:29:22;101083.06;;;9.92;89.51
33189;BME280;52601;53.070;10.600;2023-02-03T11:32:21;101082.44;;;10.30;86.09
33189;BME280;52601;53.070;10.600;2023-02-03T11:35:24;101083.28;;;10.31;86.19
33189;BME280;52601;53.070;10.600;2023-02-03T11:38:28;101083.44;;;11.08;85.70
33189;BME280;52601;53.070;10.600;2023-02-03T11:41:17;101086.88;;;10.28;85.44
33189;BME280;52601;53.070;10.600;2023-02-03T11:44:22;101105.91;;;10.33;84.46
33189;BME280;52601;53.070;10.600;2023-02-03T11:47:09;101114.91;;;10.26;85.67
33189;BME280;52601;53.070;10.600;2023-02-03T11:52:44;101132.59;;;10.43;81.83
33189;BME280;52601;53.070;10.600;2023-02-03T11:55:49;101113.00;;;10.08;84.51
33189;BME280;52601;53.070;10.600;2023-02-03T11:59:06;101125.25;;;10.08;85.03
33189;BME280;52601;53.070;10.600;2023-02-03T12:08:41;101117.03;;;10.38;81.49
33189;BME280;52601;53.070;10.600;2023-02-03T12:17:35;101129.94;;;9.78;84.30
33189;BME280;52601;53.070;10.600;2023-02-03T12:20:50;101121.94;;;9.81;84.10
33189;BME280;52601;53.070;10.600;2023-02-03T12:23:53;101148.03;;;9.84;85.48
33189;BME280;52601;53.070;10.600;2023-02-03T12:30:24;101153.53;;;9.53;85.22
33189;BME280;52601;53.070;10.600;2023-02-03T12:33:18;101154.84;;;9.42;90.71
33189;BME280;52601;53.070;10.600;2023-02-03T12:36:14;101149.19;;;9.52;87.91
33189;BME280;52601;53.070;10.600;2023-02-03T12:39:56;101168.50;;;9.50;87.71
33189;BME280;52601;53.070;10.600;2023-02-03T12:42:23;101160.66;;;9.73;85.27
33189;BME280;52601;53.070;10.600;2023-02-03T12:45:28;101165.09;;;9.48;83.74
33189;BME280;52601;53.070;10.600;2023-02-03T12:48:18;101162.84;;;9.62;83.12
33189;BME280;52601;53.070;10.600;2023-02-03T12:51:13;101165.38;;;9.40;83.92
33189;BME280;52601;53.070;10.600;2023-02-03T12:54:32;101169.25;;;9.30;85.38
33189;BME280;52601;53.070;10.600;2023-02-03T12:57:56;101178.41;;;9.42;84.59
33189;BME280;52601;53.070;10.600;2023-02-03T13:00:53;101163.66;;;9.39;86.25
33189;BME280;52601;53.070;10.600;2023-02-03T13:04:12;101152.16;;;9.43;86.85
33189;BME280;52601;53.070;10.600;2023-02-03T13:07:11;101165.63;;;9.57;85.31
33189;BME280;52601;53.070;10.600;2023-02-03T13:10:12;101176.66;;;9.66;82.61
33189;BME280;52601;53.070;10.600;2023-02-03T13:13:01;101175.72;;;9.43;82.06
33189;BME280;52601;53.070;10.600;2023-02-03T13:15:48;101183.00;;;9.35;83.77
33189;BME280;52601;53.070;10.600;2023-02-03T13:18:40;101166.56;;;9.32;84.01
33189;BME280;52601;53.070;10.600;2023-02-03T13:21:27;101180.59;;;9.29;82.98
33189;BME280;52601;53.070;10.600;2023-02-03T13:24:13;101183.38;;;9.25;82.55
33189;BME280;52601;53.070;10.600;2023-02-03T13:27:29;101188.66;;;9.23;82.68
33189;BME280;52601;53.070;10.600;2023-02-03T13:30:30;101190.25;;;9.27;85.15
33189;BME280;52601;53.070;10.600;2023-02-03T13:40:17;101194.31;;;9.36;84.44
33189;BME280;52601;53.070;10.600;2023-02-03T13:43:13;101202.38;;;9.05;84.41
33189;BME280;52601;53.070;10.600;2023-02-03T13:46:07;101190.31;;;9.01;84.36
33189;BME280;52601;53.070;10.600;2023-02-03T13:48:58;101188.22;;;9.11;83.03
33189;BME280;52601;53.070;10.600;2023-02-03T13:51:44;101188.56;;;9.02;83.55
33189;BME280;52601;53.070;10.600;2023-02-03T13:54:33;101193.78;;;9.02;86.10
33189;BME280;52601;53.070;10.600;2023-02-03T13:57:32;101194.59;;;9.04;84.32
33189;BME280;52601;53.070;10.600;2023-02-03T14:15:34;101208.53;;;8.78;83.50
33189;BME280;52601;53.070;10.600;2023-02-03T14:18:33;101226.97;;;8.74;85.58
33189;BME280;52601;53.070;10.600;2023-02-03T14:21:21;101229.50;;;8.77;86.19
33189;BME280;52601;53.070;10.600;2023-02-03T14:24:09;101220.06;;;8.73;85.93
33189;BME280;52601;53.070;10.600;2023-02-03T14:26:57;101229.22;;;8.58;86.25
33189;BME280;52601;53.070;10.600;2023-02-03T14:29:45;101243.97;;;8.60;85.87
33189;BME280;52601;53.070;10.600;2023-02-03T14:32:48;101267.19;;;8.42;88.42
33189;BME280;52601;53.070;10.600;2023-02-03T14:35:38;101262.38;;;8.28;88.35
33189;BME280;52601;53.070;10.600;2023-02-03T14:38:30;101260.06;;;8.18;93.96
33189;BME280;52601;53.070;10.600;2023-02-03T14:41:18;101253.03;;;7.91;94.45
33189;BME280;52601;53.070;10.600;2023-02-03T14:44:48;101252.63;;;8.04;92.27
33189;BME280;52601;53.070;10.600;2023-02-03T14:57:09;101256.41;;;8.25;90.89
33189;BME280;52601;53.070;10.600;2023-02-03T15:06:01;101259.41;;;8.11;89.68
33189;BME280;52601;53.070;10.600;2023-02-03T15:08:47;101248.84;;;8.14;90.78
33189;BME280;52601;53.070;10.600;2023-02-03T15:11:33;101283.03;;;8.07;91.21
33189;BME280;52601;53.070;10.600;2023-02-03T15:14:26;101275.19;;;8.07;91.31
33189;BME280;52601;53.070;10.600;2023-02-03T15:17:26;101288.97;;;8.12;89.20
33189;BME280;52601;53.070;10.600;2023-02-03T15:20:39;101295.22;;;8.06;92.09
33189;BME280;52601;53.070;10.600;2023-02-03T15:23:28;101295.31;;;8.03;90.20
33189;BME280;52601;53.070;10.600;2023-02-03T15:26:16;101279.13;;;7.91;92.67
33189;BME280;52601;53.070;10.600;2023-02-03T15:29:18;101286.75;;;7.98;91.85
33189;BME280;52601;53.070;10.600;2023-02-03T15:32:09;101286.69;;;8.00;92.42
33189;BME280;52601;53.070;10.600;2023-02-03T15:34:57;101301.59;;;7.96;91.56
33189;BME280;52601;53.070;10.600;2023-02-03T15:37:48;101305.97;;;7.96;92.37
33189;BME280;52601;53.070;10.600;2023-02-03T15:40:42;101307.22;;;7.82;93.48
33189;BME280;52601;53.070;10.600;2023-02-03T15:43:36;101301.81;;;7.89;93.06
33189;BME280;52601;53.070;10.600;2023-02-03T15:46:30;101312.97;;;7.94;93.08
33189;BME280;52601;53.070;10.600;2023-02-03T15:49:22;101299.59;;;7.73;96.99
33189;BME280;52601;53.070;10.600;2023-02-03T15:52:16;101319.50;;;7.77;95.98
33189;BME280;52601;53.070;10.600;2023-02-03T15:55:09;101313.47;;;7.75;95.37
33189;BME280;52601;53.070;10.600;2023-02-03T15:58:02;101323.81;;;7.80;96.83